Terminal Aerodrome Forecast
Issued by NWS

Home | Current Version | Previous Version | Text Only | Print | Product List | Glossary On
Versions: 1 2 3 4 5 6 7 8 9 10 11 12 13 14 15 16 17 18 19 20 21 22 23 24 25 26 27
264
FTUS45 KLKN 262334
TAFEKO
TAF
KEKO 262334Z 2700/2724 25015KT P6SM SCT040 BKN060
     FM270200 24006KT P6SM VCSH BKN040
     FM270900 VRB04KT P6SM -SHRA SCT025 BKN035
     FM271300 25007KT 4SM -SNRA BR SCT005 OVC012
     FM271800 30012G19KT P6SM VCSH SCT015 OVC030=

USA.gov is the U.S. government's official web portal to all federal, state and local government web resources and services.